Elwell, Michigan
Current Conditions -  °F | °C
As of 4:11 PM on Sunday 23 Nov 2014 (Local Time) from KAMN Reporting Station
Overcast Overcast  
Wind Chill: 46°   Ceiling: 3800
Heat Index: 49°   Visibility: 10mi
Dew Point: 46°   Wind: 8mph
Humidity: 90%   Direction: 140°SE
Pressure: 29.62"   Gusts: NA
Location:  43.39°N, 84.75°W
Report Text: KAMN 232111Z AUTO 14007KT 10SM SCT016 BKN038 OVC080 10/08 A2962 RMK AO2 T00950079
Loading
Personal Weather Stations






























Interactive Weather Map New forecast layout! Learn more

10-Day Weather Forecast

Advertisements
Track Severe Weather on mobile